Main page
METAR-TAF:

METAR-TAF

Airports :

Cervia Air Base

Cervia, Italy

latitude: 44-13N, longitude: 012-18E, elevation: 6 m

Current weather observation

The report was made 1 hour and 0 minutes ago, at 15:55 UTC
Wind 6 kt from the East
Temperature 20°C
Humidity 94%
Pressure 1018 hPa
Visibility: 4000 m
mist

METAR: LIPC 231555Z 10006KT 4000 BR NSC 20/19 Q1018 RMK SCT SCT200 VIS MIN 4000 WIND THR11/////KT WIND THR29 11006KT GRN

Time: 18:55 (16:55 UTC)

Forecast

The report was made 2 hours and 55 minutes ago, at 14:00 UTC
Forecast valid from 23 at 15 UTC to 23 at 24 UTC
Wind 5 kt from the East
Visibility: 8000 m
Becoming
from 23 at 17 UTC to 23 at 19 UTC
Visibility: 4000 m
mist
Becoming
from 23 at 21 UTC to 23 at 23 UTC
Visibility: 1200 m
Scattered clouds at a height of 700 ft
Broken clouds at a height of 1500 ft
patches of fog

TAF: LIPC 231400Z 2315/2324 08005KT 8000 NSC BECMG 2317/2319 4000 BR BECMG 2321/2323 1200 BCFG SCT007 BKN015

Weather observations and forecasts of more than 4000 airports (METAR and TAF reports).

The available stations are represented by yellow and red dots on the map.

Hover mouse over dot to see the name of the station.

Then click to see weather observations and forecasts.

To change the map : click on the green buttons with a black cross to zoom in, on the green button with a dash to zoom out, or on the green arrows for adjacent maps.


METAR-TAF: